createdAt,value
2023-04-30T00:00:52.329Z,0
2023-04-30T00:02:32.903Z,0
2023-04-30T00:04:13.218Z,0
2023-04-30T00:05:53.538Z,0
2023-04-30T00:07:33.930Z,0
2023-04-30T00:09:14.298Z,0
2023-04-30T00:10:54.730Z,0
2023-04-30T00:12:35.107Z,0
2023-04-30T00:14:15.606Z,0
2023-04-30T00:15:56.044Z,0
2023-04-30T00:17:36.468Z,0
2023-04-30T00:19:16.834Z,0
2023-04-30T00:20:57.221Z,0
2023-04-30T00:22:37.675Z,0
2023-04-30T00:24:18.049Z,0
2023-04-30T00:25:58.487Z,0
2023-04-30T00:27:40.895Z,0
2023-04-30T00:29:19.309Z,0
2023-04-30T00:30:59.761Z,0
2023-04-30T00:32:40.239Z,0
2023-04-30T00:34:20.581Z,0
2023-04-30T00:36:01.009Z,0
2023-04-30T00:37:41.451Z,0
2023-04-30T00:39:21.913Z,0
2023-04-30T00:41:02.396Z,0
2023-04-30T00:42:42.839Z,0
2023-04-30T00:44:23.279Z,0
2023-04-30T00:46:03.721Z,0
2023-04-30T00:47:44.086Z,0
2023-04-30T00:49:24.461Z,0
2023-04-30T00:51:04.895Z,0
2023-04-30T00:52:45.227Z,0
2023-04-30T00:54:25.699Z,0
2023-04-30T00:56:06.160Z,0
2023-04-30T00:57:46.558Z,0
2023-04-30T00:59:26.910Z,0
2023-04-30T01:01:07.380Z,0
2023-04-30T01:02:47.888Z,0
2023-04-30T01:04:28.196Z,0
2023-04-30T01:06:08.586Z,0
2023-04-30T01:07:48.955Z,0
2023-04-30T01:09:29.308Z,0
2023-04-30T01:11:09.788Z,0
2023-04-30T01:12:50.173Z,0
2023-04-30T01:14:30.685Z,0
2023-04-30T01:16:11.021Z,0
2023-04-30T01:17:51.499Z,0
2023-04-30T01:19:31.796Z,0
2023-04-30T01:21:12.209Z,0
2023-04-30T01:22:52.579Z,0
2023-04-30T01:24:32.955Z,0
2023-04-30T01:26:13.359Z,0
2023-04-30T01:27:53.820Z,0
2023-04-30T01:29:34.202Z,0
2023-04-30T01:31:14.624Z,0
2023-04-30T01:32:55.146Z,0
2023-04-30T01:34:35.546Z,0
2023-04-30T01:36:15.957Z,0
2023-04-30T01:37:56.364Z,0
2023-04-30T01:39:36.778Z,0
2023-04-30T01:41:17.237Z,0
2023-04-30T01:42:57.688Z,0
2023-04-30T01:44:38.110Z,0
2023-04-30T01:46:18.607Z,0
2023-04-30T01:47:59.040Z,0
2023-04-30T01:49:39.384Z,0
2023-04-30T01:51:19.771Z,0
2023-04-30T01:53:00.214Z,0
2023-04-30T01:54:40.562Z,0
2023-04-30T01:56:20.897Z,0
2023-04-30T01:58:01.286Z,0
2023-04-30T01:59:41.603Z,0
2023-04-30T02:01:22.167Z,0
2023-04-30T02:03:02.730Z,0
2023-04-30T02:04:42.986Z,0
2023-04-30T02:06:38.430Z,0
2023-04-30T02:08:03.786Z,0
2023-04-30T02:09:44.170Z,0
2023-04-30T02:11:24.568Z,0
2023-04-30T02:13:05.089Z,0
2023-04-30T02:14:45.505Z,0
2023-04-30T02:16:25.828Z,0
2023-04-30T02:18:06.320Z,0
2023-04-30T02:19:46.719Z,0
2023-04-30T02:21:27.139Z,0
2023-04-30T02:23:07.564Z,0
2023-04-30T02:24:47.975Z,0
2023-04-30T02:26:28.372Z,0
2023-04-30T02:28:08.893Z,0
2023-04-30T02:29:49.498Z,0
2023-04-30T02:31:29.830Z,0
2023-04-30T02:33:10.304Z,0
2023-04-30T02:34:50.714Z,0
2023-04-30T02:36:31.107Z,0
2023-04-30T02:38:11.504Z,0
2023-04-30T02:39:52.130Z,0
2023-04-30T02:41:32.262Z,0
2023-04-30T02:43:12.662Z,0
2023-04-30T02:44:53.083Z,0
2023-04-30T02:46:33.527Z,0
2023-04-30T02:48:13.895Z,0
2023-04-30T02:49:54.565Z,0
2023-04-30T02:51:34.802Z,0
2023-04-30T02:53:15.182Z,0
2023-04-30T02:54:55.638Z,0
2023-04-30T02:56:36.150Z,0
2023-04-30T02:58:16.515Z,0
2023-04-30T02:59:57.288Z,0
2023-04-30T03:01:37.417Z,0
2023-04-30T03:03:17.925Z,0
2023-04-30T03:04:58.192Z,0
2023-04-30T03:06:38.655Z,1
2023-04-30T03:08:19.053Z,1
2023-04-30T03:09:59.498Z,0
2023-04-30T03:11:40.011Z,1
2023-04-30T03:13:20.465Z,1
2023-04-30T03:15:00.879Z,2
2023-04-30T03:16:41.474Z,2
2023-04-30T03:18:21.704Z,2
2023-04-30T03:20:02.124Z,3
2023-04-30T03:21:42.509Z,4
2023-04-30T03:23:22.953Z,4
2023-04-30T03:25:03.376Z,6
2023-04-30T03:26:43.788Z,7
2023-04-30T03:28:24.186Z,10
2023-04-30T03:30:04.514Z,13
2023-04-30T03:31:44.890Z,18
2023-04-30T03:33:25.261Z,23
2023-04-30T03:35:05.652Z,29
2023-04-30T03:36:46.050Z,39
2023-04-30T03:38:26.501Z,51
2023-04-30T03:40:06.877Z,64
2023-04-30T03:41:47.362Z,80
2023-04-30T03:43:27.763Z,100
2023-04-30T03:45:08.254Z,124
2023-04-30T03:46:48.651Z,151
2023-04-30T03:48:29.140Z,184
2023-04-30T03:50:09.475Z,222
2023-04-30T03:51:49.953Z,264
2023-04-30T03:53:30.406Z,313
2023-04-30T03:55:10.846Z,379
2023-04-30T03:56:51.302Z,426
2023-04-30T03:58:31.713Z,474
2023-04-30T04:00:12.160Z,517
2023-04-30T04:01:52.604Z,582
2023-04-30T04:03:32.978Z,662
2023-04-30T04:05:13.376Z,782
2023-04-30T04:06:53.782Z,906
2023-04-30T04:08:34.203Z,1012
2023-04-30T04:10:14.586Z,1141
2023-04-30T04:11:54.925Z,1267
2023-04-30T04:13:35.405Z,1379
2023-04-30T04:15:15.879Z,1496
2023-04-30T04:16:56.231Z,1636
2023-04-30T04:18:36.642Z,1806
2023-04-30T04:20:17.100Z,1955
2023-04-30T04:21:57.469Z,1950
2023-04-30T04:23:37.913Z,2042
2023-04-30T04:25:18.526Z,2038
2023-04-30T04:26:58.678Z,2028
2023-04-30T04:28:39.087Z,2184
2023-04-30T04:30:19.580Z,2248
2023-04-30T04:32:00.101Z,2564
2023-04-30T04:33:40.482Z,2474
2023-04-30T04:35:20.918Z,2499
2023-04-30T04:37:01.337Z,2665
2023-04-30T04:38:41.760Z,2783
2023-04-30T04:40:22.234Z,3159
2023-04-30T04:42:02.626Z,3370
2023-04-30T04:43:43.017Z,3477
2023-04-30T04:45:23.473Z,3430
2023-04-30T04:47:03.908Z,3542
2023-04-30T04:48:44.271Z,3925
2023-04-30T04:50:24.701Z,4002
2023-04-30T04:52:05.147Z,3878
2023-04-30T04:53:45.495Z,4174
2023-04-30T04:55:25.932Z,4019
2023-04-30T04:57:06.342Z,4275
2023-04-30T04:58:46.726Z,4279
2023-04-30T05:00:27.116Z,4977
2023-04-30T05:02:07.573Z,5854
2023-04-30T05:03:47.926Z,5429
2023-04-30T05:05:28.149Z,5778
2023-04-30T05:07:08.403Z,5542
2023-04-30T05:08:48.780Z,5867
2023-04-30T05:10:29.133Z,5888
2023-04-30T05:12:09.500Z,7069
2023-04-30T05:13:49.844Z,6731
2023-04-30T05:15:30.190Z,7213
2023-04-30T05:17:10.600Z,7205
2023-04-30T05:18:51.095Z,7573
2023-04-30T05:20:31.505Z,7032
2023-04-30T05:22:11.942Z,7266
2023-04-30T05:23:52.347Z,6888
2023-04-30T05:25:32.782Z,5933
2023-04-30T05:27:13.170Z,10596
2023-04-30T05:28:53.600Z,7041
2023-04-30T05:30:34.044Z,8778
2023-04-30T05:32:14.565Z,9146
2023-04-30T05:33:54.967Z,9610
2023-04-30T05:35:35.360Z,8922
2023-04-30T05:37:15.768Z,9820
2023-04-30T05:38:56.159Z,9289
2023-04-30T05:40:36.559Z,9799
2023-04-30T05:42:17.028Z,10986
2023-04-30T05:43:57.517Z,10082
2023-04-30T05:45:37.822Z,11123
2023-04-30T05:47:18.297Z,11434
2023-04-30T05:48:58.743Z,11309
2023-04-30T05:50:39.304Z,13842
2023-04-30T05:52:19.586Z,15482
2023-04-30T05:54:00.122Z,12838
2023-04-30T05:55:40.534Z,13112
2023-04-30T05:57:20.903Z,15172
2023-04-30T05:59:01.245Z,15012
2023-04-30T06:00:41.646Z,14679
2023-04-30T06:02:22.153Z,15728
2023-04-30T06:04:02.465Z,13797
2023-04-30T06:05:43.043Z,14546
2023-04-30T06:07:23.305Z,17248
2023-04-30T06:09:03.787Z,17704
2023-04-30T06:10:44.206Z,15433
2023-04-30T06:12:24.603Z,15897
2023-04-30T06:14:04.998Z,16992
2023-04-30T06:15:45.356Z,13773
2023-04-30T06:17:25.817Z,13235
2023-04-30T06:19:06.267Z,15108
2023-04-30T06:20:46.705Z,13957
2023-04-30T06:22:27.106Z,14693
2023-04-30T06:24:07.569Z,15909
2023-04-30T06:25:48.052Z,18056
2023-04-30T06:27:28.526Z,20096
2023-04-30T06:29:08.968Z,22808
2023-04-30T06:30:49.316Z,23568
2023-04-30T06:32:29.792Z,26736
2023-04-30T06:34:10.140Z,26720
2023-04-30T06:35:50.510Z,29168
2023-04-30T06:37:32.406Z,33936
2023-04-30T06:39:11.392Z,32992
2023-04-30T06:40:51.831Z,35240
2023-04-30T06:42:32.227Z,42792
2023-04-30T06:44:12.733Z,37136
2023-04-30T06:45:53.121Z,34712
2023-04-30T06:47:33.504Z,36672
2023-04-30T06:49:13.863Z,39248
2023-04-30T06:50:54.225Z,43488
2023-04-30T06:52:34.615Z,42304
2023-04-30T06:54:14.977Z,36984
2023-04-30T06:55:55.352Z,37528
2023-04-30T06:57:35.754Z,38552
2023-04-30T06:59:16.155Z,35072
2023-04-30T07:00:56.584Z,32856
2023-04-30T07:02:37.064Z,19256
2023-04-30T07:04:17.385Z,19264
2023-04-30T07:05:57.847Z,19440
2023-04-30T07:07:38.218Z,20664
2023-04-30T07:09:18.635Z,24880
2023-04-30T07:10:58.992Z,22800
2023-04-30T07:12:39.474Z,17159
2023-04-30T07:14:19.880Z,22440
2023-04-30T07:16:00.279Z,18624
2023-04-30T07:17:40.657Z,23400
2023-04-30T07:19:21.137Z,39472
2023-04-30T07:21:01.595Z,42248
2023-04-30T07:22:42.117Z,40528
2023-04-30T07:24:22.619Z,42144
2023-04-30T07:26:02.945Z,45416
2023-04-30T07:27:43.307Z,47208
2023-04-30T07:29:23.670Z,43264
2023-04-30T07:31:04.117Z,49400
2023-04-30T07:32:44.484Z,46008
2023-04-30T07:34:24.803Z,37112
2023-04-30T07:36:05.253Z,40864
2023-04-30T07:37:45.633Z,45320
2023-04-30T07:39:26.053Z,35584
2023-04-30T07:41:06.456Z,38048
2023-04-30T07:42:46.823Z,51272
2023-04-30T07:44:27.270Z,47512
2023-04-30T07:46:07.685Z,32128
2023-04-30T07:47:48.090Z,34232
2023-04-30T07:49:28.481Z,59200
2023-04-30T07:51:08.931Z,65535
2023-04-30T07:52:49.344Z,45400
2023-04-30T07:54:29.796Z,28176
2023-04-30T07:56:10.169Z,38000
2023-04-30T07:57:50.610Z,65480
2023-04-30T07:59:31.062Z,37104
2023-04-30T08:01:11.527Z,19504
2023-04-30T08:02:52.027Z,37560
2023-04-30T08:04:32.482Z,46352
2023-04-30T08:06:12.636Z,59912
2023-04-30T08:07:53.021Z,58328
2023-04-30T08:09:33.395Z,45496
2023-04-30T08:11:13.805Z,42592
2023-04-30T08:12:54.291Z,45504
2023-04-30T08:14:34.621Z,45376
2023-04-30T08:16:15.117Z,55112
2023-04-30T08:17:55.533Z,65535
2023-04-30T08:19:35.859Z,65535
2023-04-30T08:21:16.343Z,59568
2023-04-30T08:22:56.707Z,35920
2023-04-30T08:24:37.169Z,39296
2023-04-30T08:26:17.603Z,65535
2023-04-30T08:27:58.016Z,65535
2023-04-30T08:29:38.519Z,65535
2023-04-30T08:31:18.948Z,44080
2023-04-30T08:32:59.239Z,44240
2023-04-30T08:34:39.574Z,58096
2023-04-30T08:36:19.917Z,65535
2023-04-30T08:38:00.392Z,65535
2023-04-30T08:39:40.793Z,65535
2023-04-30T08:41:21.235Z,63976
2023-04-30T08:43:01.619Z,46120
2023-04-30T08:44:41.986Z,30648
2023-04-30T08:46:22.461Z,40200
2023-04-30T08:48:02.915Z,64848
2023-04-30T08:49:43.283Z,65535
2023-04-30T08:51:23.707Z,65535
2023-04-30T08:53:04.193Z,54984
2023-04-30T08:54:44.593Z,49880
2023-04-30T08:56:25.518Z,62448
2023-04-30T08:58:05.448Z,65535
2023-04-30T08:59:45.882Z,65535
2023-04-30T09:01:26.375Z,64912
2023-04-30T09:03:06.802Z,65535
2023-04-30T09:04:47.065Z,65535
2023-04-30T09:06:27.614Z,65535
2023-04-30T09:08:07.919Z,65535
2023-04-30T09:09:48.310Z,65535
2023-04-30T09:11:28.781Z,65535
2023-04-30T09:13:09.280Z,65535
2023-04-30T09:14:49.567Z,65535
2023-04-30T09:16:30.193Z,65535
2023-04-30T09:18:10.500Z,65535
2023-04-30T09:19:50.841Z,65528
2023-04-30T09:21:31.210Z,60792
2023-04-30T09:23:11.619Z,64216
2023-04-30T09:24:52.062Z,65535
2023-04-30T09:26:32.488Z,65535
2023-04-30T09:28:12.900Z,65535
2023-04-30T09:29:53.459Z,65535
2023-04-30T09:31:33.911Z,65535
2023-04-30T09:33:14.363Z,65535
2023-04-30T09:34:54.627Z,65535
2023-04-30T09:36:35.047Z,65535
2023-04-30T09:38:15.379Z,65535
2023-04-30T09:39:56.122Z,65535
2023-04-30T09:41:36.194Z,65535
2023-04-30T09:43:16.646Z,65535
2023-04-30T09:44:57.066Z,65535
2023-04-30T09:46:37.617Z,65535
2023-04-30T09:48:18.191Z,65535
2023-04-30T09:49:58.390Z,65535
2023-04-30T09:51:38.710Z,65535
2023-04-30T09:53:19.158Z,65535
2023-04-30T09:54:59.504Z,65535
2023-04-30T09:56:39.862Z,65535
2023-04-30T09:58:20.246Z,65535
2023-04-30T10:00:00.656Z,65535
2023-04-30T10:01:41.418Z,65535
2023-04-30T10:03:21.488Z,65535
2023-04-30T10:05:01.866Z,65535
2023-04-30T10:06:42.335Z,65535
2023-04-30T10:08:22.734Z,65535
2023-04-30T10:10:03.196Z,65535
2023-04-30T10:11:43.601Z,65535
2023-04-30T10:13:24.154Z,65535
2023-04-30T10:15:04.505Z,65535
2023-04-30T10:16:45.060Z,65535
2023-04-30T10:18:25.365Z,65535
2023-04-30T10:20:05.776Z,65535
2023-04-30T10:21:46.254Z,65535
2023-04-30T10:23:26.681Z,65535
2023-04-30T10:25:07.056Z,65535
2023-04-30T10:26:47.455Z,63160
2023-04-30T10:28:27.884Z,65535
2023-04-30T10:30:08.268Z,65535
2023-04-30T10:31:48.732Z,65535
2023-04-30T10:33:29.078Z,65535
2023-04-30T10:35:09.472Z,65535
2023-04-30T10:36:49.888Z,65535
2023-04-30T10:38:30.291Z,65535
2023-04-30T10:40:10.643Z,65535
2023-04-30T10:41:51.066Z,65535
2023-04-30T10:43:31.476Z,56544
2023-04-30T10:45:11.874Z,65535
2023-04-30T10:46:52.326Z,65535
2023-04-30T10:48:32.683Z,65535
2023-04-30T10:50:13.184Z,65535
2023-04-30T10:51:53.578Z,59584
2023-04-30T10:53:33.982Z,65535
2023-04-30T10:55:14.418Z,65535
2023-04-30T10:56:54.782Z,65535
2023-04-30T10:58:35.169Z,65535
2023-04-30T11:00:15.613Z,59136
2023-04-30T11:01:56.095Z,53328
2023-04-30T11:03:36.437Z,65535
2023-04-30T11:05:17.082Z,65535
2023-04-30T11:06:57.223Z,65535
2023-04-30T11:08:37.615Z,65535
2023-04-30T11:10:17.976Z,47224
2023-04-30T11:11:58.356Z,56904
2023-04-30T11:13:38.761Z,65535
2023-04-30T11:15:19.108Z,65535
2023-04-30T11:16:59.626Z,65535
2023-04-30T11:18:40.018Z,65535
2023-04-30T11:20:20.349Z,65535
2023-04-30T11:22:00.744Z,65535
2023-04-30T11:23:42.211Z,65535
2023-04-30T11:25:21.641Z,65535
2023-04-30T11:27:02.060Z,65535
2023-04-30T11:28:42.462Z,65535
2023-04-30T11:30:22.876Z,65535
2023-04-30T11:32:03.356Z,65535
2023-04-30T11:33:43.722Z,65535
2023-04-30T11:35:24.077Z,65535
2023-04-30T11:37:04.481Z,65535
2023-04-30T11:38:44.911Z,65535
2023-04-30T11:40:25.346Z,65535
2023-04-30T11:42:05.711Z,65535
2023-04-30T11:43:46.105Z,65535
2023-04-30T11:45:26.464Z,65535
2023-04-30T11:47:07.075Z,65535
2023-04-30T11:48:47.399Z,65535
2023-04-30T11:50:27.801Z,65535
2023-04-30T11:52:08.179Z,65535
2023-04-30T11:53:48.578Z,65535
2023-04-30T11:55:29.029Z,65535
2023-04-30T11:57:09.418Z,65535
2023-04-30T11:58:49.920Z,65535
2023-04-30T12:00:30.276Z,65535
2023-04-30T12:02:13.508Z,65535
2023-04-30T12:03:51.231Z,65535
2023-04-30T12:05:31.530Z,65535
2023-04-30T12:07:12.027Z,65535
2023-04-30T12:08:52.479Z,65535
2023-04-30T12:10:32.888Z,65535
2023-04-30T12:12:13.316Z,65535
2023-04-30T12:13:53.789Z,65535
2023-04-30T12:15:34.254Z,65535
2023-04-30T12:17:14.792Z,65535
2023-04-30T12:18:55.106Z,65535
2023-04-30T12:20:35.585Z,65535
2023-04-30T12:22:15.935Z,65535
2023-04-30T12:23:56.280Z,65535
2023-04-30T12:25:36.783Z,65535
2023-04-30T12:27:17.184Z,65535
2023-04-30T12:28:57.622Z,65535
2023-04-30T12:30:38.066Z,65535
2023-04-30T12:32:18.575Z,65535
2023-04-30T12:33:58.865Z,65535
2023-04-30T12:35:39.237Z,65535
2023-04-30T12:37:19.576Z,65535
2023-04-30T12:39:00.051Z,65535
2023-04-30T12:40:40.448Z,65535
2023-04-30T12:42:20.858Z,65535
2023-04-30T12:44:01.300Z,65535
2023-04-30T12:45:41.843Z,65535
2023-04-30T12:47:22.183Z,65535
2023-04-30T12:49:02.542Z,65535
2023-04-30T12:50:42.950Z,65535
2023-04-30T12:52:23.416Z,65535
2023-04-30T12:54:03.803Z,65535
2023-04-30T12:55:47.291Z,65535
2023-04-30T12:57:24.684Z,65535
2023-04-30T12:59:05.129Z,65535
2023-04-30T13:00:45.570Z,65535
2023-04-30T13:02:26.092Z,65535
2023-04-30T13:04:06.526Z,62440
2023-04-30T13:05:46.829Z,65535
2023-04-30T13:07:27.257Z,65535
2023-04-30T13:09:07.691Z,65535
2023-04-30T13:10:48.145Z,65535
2023-04-30T13:12:28.550Z,65535
2023-04-30T13:14:08.908Z,65535
2023-04-30T13:15:49.315Z,65535
2023-04-30T13:17:29.762Z,65535
2023-04-30T13:19:10.179Z,65535
2023-04-30T13:20:50.573Z,65535
2023-04-30T13:22:30.987Z,65535
2023-04-30T13:24:11.401Z,65535
2023-04-30T13:25:51.745Z,65535
2023-04-30T13:27:32.252Z,65535
2023-04-30T13:29:12.732Z,65535
2023-04-30T13:30:53.193Z,65535
2023-04-30T13:32:33.551Z,65535
2023-04-30T13:34:13.862Z,65535
2023-04-30T13:35:54.225Z,65535
2023-04-30T13:37:34.625Z,65535
2023-04-30T13:39:15.007Z,65535
2023-04-30T13:40:55.425Z,65535
2023-04-30T13:42:35.842Z,65535
2023-04-30T13:44:16.277Z,65535
2023-04-30T13:45:56.701Z,65535
2023-04-30T13:47:37.113Z,65535
2023-04-30T13:49:17.457Z,65535
2023-04-30T13:50:57.829Z,65535
2023-04-30T13:52:38.295Z,65535
2023-04-30T13:54:18.729Z,65535
2023-04-30T13:55:59.123Z,65535
2023-04-30T13:57:39.588Z,65535
2023-04-30T13:59:20.031Z,65535
2023-04-30T14:01:00.553Z,65535
2023-04-30T14:02:41.055Z,65535
2023-04-30T14:04:21.393Z,65535
2023-04-30T14:06:01.740Z,65535
2023-04-30T14:07:42.090Z,51432
2023-04-30T14:09:22.526Z,63016
2023-04-30T14:11:02.933Z,65535
2023-04-30T14:12:43.363Z,65535
2023-04-30T14:14:23.725Z,65535
2023-04-30T14:16:04.165Z,65535
2023-04-30T14:17:44.531Z,65535
2023-04-30T14:19:24.933Z,65535
2023-04-30T14:21:05.272Z,60616
2023-04-30T14:22:45.712Z,65535
2023-04-30T14:24:26.133Z,65535
2023-04-30T14:26:06.478Z,65535
2023-04-30T14:27:46.913Z,58320
2023-04-30T14:29:27.320Z,65535
2023-04-30T14:31:07.769Z,65535
2023-04-30T14:32:48.255Z,63312
2023-04-30T14:34:28.575Z,65535
2023-04-30T14:36:09.002Z,65535
2023-04-30T14:37:49.446Z,65535
2023-04-30T14:39:29.885Z,65535
2023-04-30T14:41:10.270Z,65535
2023-04-30T14:42:50.795Z,65535
2023-04-30T14:44:31.031Z,65535
2023-04-30T14:46:11.547Z,65535
2023-04-30T14:47:51.943Z,65535
2023-04-30T14:49:32.281Z,65535
2023-04-30T14:51:12.662Z,65535
2023-04-30T14:52:53.094Z,65535
2023-04-30T14:54:33.546Z,65535
2023-04-30T14:56:14.002Z,65535
2023-04-30T14:57:54.385Z,62248
2023-04-30T14:59:34.828Z,65535
2023-04-30T15:01:15.283Z,65535
2023-04-30T15:02:55.726Z,65535
2023-04-30T15:04:36.009Z,65535
2023-04-30T15:06:16.442Z,65535
2023-04-30T15:07:56.893Z,60848
2023-04-30T15:09:37.313Z,62928
2023-04-30T15:11:17.709Z,65535
2023-04-30T15:12:58.175Z,65535
2023-04-30T15:14:38.582Z,65535
2023-04-30T15:16:19.129Z,65535
2023-04-30T15:17:59.468Z,65535
2023-04-30T15:19:39.895Z,63648
2023-04-30T15:21:20.294Z,49080
2023-04-30T15:23:00.740Z,40976
2023-04-30T15:24:41.138Z,50360
2023-04-30T15:26:21.452Z,44336
2023-04-30T15:28:01.924Z,41808
2023-04-30T15:29:42.365Z,44616
2023-04-30T15:31:22.799Z,46112
2023-04-30T15:33:03.319Z,45848
2023-04-30T15:34:43.698Z,42904
2023-04-30T15:36:24.161Z,42880
2023-04-30T15:38:04.596Z,53320
2023-04-30T15:39:45.050Z,49256
2023-04-30T15:41:25.397Z,35944
2023-04-30T15:43:05.785Z,40216
2023-04-30T15:44:46.196Z,43296
2023-04-30T15:46:26.574Z,39336
2023-04-30T15:48:07.018Z,52608
2023-04-30T15:49:47.377Z,50336
2023-04-30T15:51:27.738Z,32808
2023-04-30T15:53:08.171Z,32456
2023-04-30T15:54:48.582Z,44312
2023-04-30T15:56:28.946Z,39384
2023-04-30T15:58:09.331Z,26368
2023-04-30T15:59:49.761Z,34048
2023-04-30T16:01:30.224Z,40672
2023-04-30T16:03:10.816Z,37024
2023-04-30T16:04:51.094Z,44384
2023-04-30T16:06:31.553Z,38336
2023-04-30T16:08:11.849Z,31832
2023-04-30T16:09:52.238Z,29240
2023-04-30T16:11:32.669Z,28840
2023-04-30T16:13:13.085Z,31432
2023-04-30T16:14:53.558Z,33200
2023-04-30T16:16:34.091Z,31880
2023-04-30T16:18:14.457Z,31880
2023-04-30T16:19:55.209Z,25352
2023-04-30T16:21:37.130Z,26472
2023-04-30T16:23:15.597Z,32896
2023-04-30T16:24:55.978Z,38760
2023-04-30T16:26:36.334Z,29160
2023-04-30T16:28:16.751Z,11712
2023-04-30T16:29:57.454Z,24912
2023-04-30T16:31:37.723Z,27688
2023-04-30T16:33:18.037Z,17752
2023-04-30T16:34:58.418Z,18448
2023-04-30T16:36:38.832Z,21408
2023-04-30T16:38:19.344Z,24448
2023-04-30T16:39:59.762Z,15240
2023-04-30T16:41:40.212Z,13296
2023-04-30T16:43:20.665Z,19392
2023-04-30T16:45:00.990Z,18184
2023-04-30T16:46:41.368Z,22984
2023-04-30T16:48:21.832Z,19360
2023-04-30T16:50:02.257Z,24864
2023-04-30T16:51:45.780Z,28448
2023-04-30T16:53:23.156Z,14984
2023-04-30T16:55:03.472Z,19784
2023-04-30T16:56:43.916Z,22080
2023-04-30T16:58:24.367Z,16840
2023-04-30T17:00:04.807Z,14600
2023-04-30T17:01:45.179Z,14138
2023-04-30T17:03:25.824Z,12848
2023-04-30T17:05:06.103Z,17944
2023-04-30T17:06:46.694Z,15344
2023-04-30T17:08:26.923Z,15314
2023-04-30T17:10:07.361Z,14756
2023-04-30T17:11:47.710Z,15350
2023-04-30T17:13:31.068Z,13469
2023-04-30T17:15:08.425Z,12974
2023-04-30T17:16:48.785Z,13150
2023-04-30T17:18:29.238Z,11335
2023-04-30T17:20:09.605Z,11627
2023-04-30T17:21:50.065Z,13621
2023-04-30T17:23:30.462Z,12977
2023-04-30T17:25:10.857Z,14072
2023-04-30T17:26:51.269Z,13400
2023-04-30T17:28:31.618Z,11256
2023-04-30T17:30:12.026Z,9673
2023-04-30T17:31:52.563Z,9416
2023-04-30T17:33:32.862Z,9657
2023-04-30T17:35:13.285Z,8497
2023-04-30T17:36:53.691Z,7567
2023-04-30T17:38:34.142Z,6778
2023-04-30T17:40:14.541Z,7399
2023-04-30T17:41:54.946Z,8242
2023-04-30T17:43:35.354Z,7811
2023-04-30T17:45:18.863Z,6538
2023-04-30T17:46:56.298Z,5608
2023-04-30T17:48:36.644Z,5371
2023-04-30T17:50:17.059Z,5225
2023-04-30T17:51:57.454Z,5114
2023-04-30T17:53:37.857Z,4808
2023-04-30T17:55:18.249Z,3746
2023-04-30T17:56:58.689Z,3509
2023-04-30T17:58:40.079Z,3338
2023-04-30T18:00:19.462Z,3185
2023-04-30T18:01:59.851Z,3052
2023-04-30T18:03:40.233Z,2944
2023-04-30T18:05:23.624Z,2955
2023-04-30T18:07:00.891Z,2800
2023-04-30T18:08:41.222Z,2617
2023-04-30T18:10:21.680Z,2492
2023-04-30T18:12:02.077Z,2391
2023-04-30T18:13:42.495Z,2229
2023-04-30T18:15:22.935Z,2046
2023-04-30T18:17:03.381Z,1889
2023-04-30T18:18:43.798Z,1757
2023-04-30T18:20:24.262Z,1627
2023-04-30T18:22:04.638Z,1505
2023-04-30T18:23:45.028Z,1377
2023-04-30T18:25:25.497Z,1252
2023-04-30T18:27:05.943Z,1134
2023-04-30T18:28:46.404Z,1024
2023-04-30T18:30:26.853Z,919
2023-04-30T18:32:07.287Z,820
2023-04-30T18:33:47.768Z,728
2023-04-30T18:35:28.188Z,642
2023-04-30T18:37:08.609Z,565
2023-04-30T18:38:48.988Z,498
2023-04-30T18:40:29.484Z,437
2023-04-30T18:42:09.854Z,384
2023-04-30T18:43:50.289Z,337
2023-04-30T18:45:30.796Z,294
2023-04-30T18:47:11.117Z,255
2023-04-30T18:48:51.511Z,219
2023-04-30T18:50:31.989Z,188
2023-04-30T18:52:12.412Z,158
2023-04-30T18:53:52.842Z,132
2023-04-30T18:55:33.250Z,109
2023-04-30T18:57:13.679Z,89
2023-04-30T18:58:54.148Z,72
2023-04-30T19:00:34.669Z,57
2023-04-30T19:02:15.103Z,45
2023-04-30T19:03:55.481Z,35
2023-04-30T19:05:35.781Z,27
2023-04-30T19:07:16.115Z,21
2023-04-30T19:08:56.520Z,16
2023-04-30T19:10:36.921Z,13
2023-04-30T19:12:17.248Z,10
2023-04-30T19:13:57.750Z,8
2023-04-30T19:15:38.197Z,6
2023-04-30T19:17:20.223Z,5
2023-04-30T19:18:59.026Z,3
2023-04-30T19:20:39.471Z,3
2023-04-30T19:22:19.904Z,2
2023-04-30T19:24:00.289Z,1
2023-04-30T19:25:40.730Z,1
2023-04-30T19:27:21.161Z,1
2023-04-30T19:29:01.609Z,0
2023-04-30T19:30:42.182Z,1
2023-04-30T19:32:22.779Z,1
2023-04-30T19:35:43.409Z,0
2023-04-30T19:37:23.805Z,0
2023-04-30T19:39:04.211Z,0
2023-04-30T19:40:44.747Z,0
2023-04-30T19:42:25.147Z,0
2023-04-30T19:44:05.487Z,0
2023-04-30T19:45:45.954Z,0
2023-04-30T19:47:26.351Z,0
2023-04-30T19:49:06.745Z,0
2023-04-30T19:50:47.126Z,0
2023-04-30T19:52:27.471Z,0
2023-04-30T19:54:07.855Z,0
2023-04-30T19:55:51.307Z,0
2023-04-30T19:57:28.683Z,0
2023-04-30T19:59:09.098Z,0
2023-04-30T20:00:49.617Z,0
2023-04-30T20:02:30.019Z,0
2023-04-30T20:04:10.492Z,0
2023-04-30T20:05:50.782Z,0
2023-04-30T20:07:31.205Z,0
2023-04-30T20:09:11.584Z,0
2023-04-30T20:10:51.830Z,0
2023-04-30T20:12:32.121Z,0
2023-04-30T20:14:12.665Z,0
2023-04-30T20:15:52.867Z,0
2023-04-30T20:17:33.287Z,0
2023-04-30T20:19:13.535Z,0
2023-04-30T20:20:53.935Z,0
2023-04-30T20:22:34.317Z,0
2023-04-30T20:24:14.722Z,0
2023-04-30T20:25:55.172Z,0
2023-04-30T20:27:35.540Z,0
2023-04-30T20:29:15.929Z,0
2023-04-30T20:30:56.434Z,0
2023-04-30T20:32:36.816Z,0
2023-04-30T20:34:17.230Z,0
2023-04-30T20:35:57.600Z,0
2023-04-30T20:37:37.993Z,0
2023-04-30T20:39:18.343Z,0
2023-04-30T20:40:58.757Z,0
2023-04-30T20:42:39.231Z,0
2023-04-30T20:44:19.577Z,0
2023-04-30T20:45:59.998Z,0
2023-04-30T20:47:40.442Z,0
2023-04-30T20:49:20.839Z,0
2023-04-30T20:51:01.190Z,0
2023-04-30T20:52:41.600Z,0
2023-04-30T20:54:22.086Z,0
2023-04-30T20:56:02.449Z,0
2023-04-30T20:57:42.882Z,0
2023-04-30T20:59:23.304Z,0
2023-04-30T21:01:03.792Z,0
2023-04-30T21:02:44.246Z,0
2023-04-30T21:04:24.618Z,0
2023-04-30T21:06:04.968Z,0
2023-04-30T21:07:45.387Z,0
2023-04-30T21:09:25.802Z,0
2023-04-30T21:11:06.271Z,0
2023-04-30T21:12:46.732Z,0
2023-04-30T21:14:27.169Z,0
2023-04-30T21:16:07.741Z,0
2023-04-30T21:17:48.126Z,0
2023-04-30T21:19:28.530Z,0
2023-04-30T21:21:08.813Z,0
2023-04-30T21:22:49.253Z,0
2023-04-30T21:24:29.609Z,0
2023-04-30T21:26:09.944Z,0
2023-04-30T21:27:50.503Z,0
2023-04-30T21:29:30.951Z,0
2023-04-30T21:31:11.361Z,0
2023-04-30T21:32:51.761Z,0
2023-04-30T21:34:32.064Z,0
2023-04-30T21:36:12.372Z,0
2023-04-30T21:37:52.782Z,0
2023-04-30T21:39:33.190Z,0
2023-04-30T21:41:13.554Z,0
2023-04-30T21:42:53.990Z,0
2023-04-30T21:44:34.413Z,0
2023-04-30T21:46:14.919Z,0
2023-04-30T21:47:55.271Z,0
2023-04-30T21:49:35.611Z,0
2023-04-30T21:51:16.005Z,0
2023-04-30T21:52:56.442Z,0
2023-04-30T21:54:36.870Z,0
2023-04-30T21:56:18.192Z,0
2023-04-30T21:57:57.728Z,0
2023-04-30T21:59:38.152Z,0
2023-04-30T22:01:18.575Z,0
2023-04-30T22:02:58.946Z,0
2023-04-30T22:04:39.361Z,0
2023-04-30T22:06:19.820Z,0
2023-04-30T22:08:00.226Z,0
2023-04-30T22:09:40.610Z,0
2023-04-30T22:11:20.938Z,0
2023-04-30T22:13:01.368Z,0
2023-04-30T22:14:41.851Z,0
2023-04-30T22:16:22.307Z,0
2023-04-30T22:18:02.655Z,0
2023-04-30T22:19:43.062Z,0
2023-04-30T22:21:23.356Z,0
2023-04-30T22:23:03.650Z,0
2023-04-30T22:24:43.998Z,0
2023-04-30T22:26:25.473Z,0
2023-04-30T22:28:04.816Z,0
2023-04-30T22:29:45.342Z,0
2023-04-30T22:31:25.790Z,0
2023-04-30T22:33:06.202Z,0
2023-04-30T22:34:46.621Z,0
2023-04-30T22:36:27.003Z,0
2023-04-30T22:38:07.480Z,0
2023-04-30T22:39:47.821Z,0